Time;durP1;ratioP1;P1;durP2;ratioP2;P2;SDS_P1;SDS_P2;PMS_P1;PMS_P2;Temp;Humidity;BMP_temperature;BMP_pressure;BME280_temperature;BME280_humidity;BME280_pressure;Samples;Min_cycle;Max_cycle;Signal;HPM_P1;HPM_P2
2022/10/01 00:00:59;;;;;;;9.23;7.20;;;11.90;91.80;;;;;;4917303;29;20044;-76
2022/10/01 00:03:27;;;;;;;10.63;7.28;;;11.90;91.80;;;;;;4903384;29;20044;-76
2022/10/01 00:06:03;;;;;;;10.25;7.20;;;11.90;91.80;;;;;;4901119;29;20468;-75
2022/10/01 00:08:30;;;;;;;9.48;7.45;;;11.90;91.80;;;;;;4906817;28;20043;-80
2022/10/01 00:10:56;;;;;;;9.63;7.03;;;11.90;91.80;;;;;;4908051;29;20046;-76
2022/10/01 00:13:22;;;;;;;9.82;7.40;;;11.90;91.80;;;;;;4915275;29;20488;-75
2022/10/01 00:15:48;;;;;;;8.75;7.18;;;11.90;92.10;;;;;;4924421;28;20024;-77
2022/10/01 00:18:14;;;;;;;10.32;7.75;;;11.90;92.00;;;;;;4921756;29;20070;-76
2022/10/01 00:20:42;;;;;;;8.95;7.13;;;11.90;92.10;;;;;;4925268;29;20051;-77
2022/10/01 00:23:11;;;;;;;10.90;7.45;;;11.90;92.20;;;;;;4922303;29;20028;-77
2022/10/01 00:25:38;;;;;;;10.77;8.43;;;12.00;92.20;;;;;;4916053;28;20055;-75
2022/10/01 00:28:04;;;;;;;12.88;7.68;;;12.00;92.20;;;;;;4915754;29;20024;-77
2022/10/01 00:30:30;;;;;;;9.65;7.68;;;12.00;92.20;;;;;;4915537;29;20035;-81
2022/10/01 00:32:56;;;;;;;10.13;7.60;;;12.00;92.20;;;;;;4920569;29;20391;-75
2022/10/01 00:35:22;;;;;;;11.30;7.88;;;12.00;92.20;;;;;;4922786;29;20123;-75
2022/10/01 00:37:49;;;;;;;12.75;7.85;;;12.10;92.10;;;;;;4922183;29;20038;-75
2022/10/01 00:40:16;;;;;;;11.55;8.23;;;12.10;92.20;;;;;;4909479;28;20630;-75
2022/10/01 00:42:42;;;;;;;11.02;8.07;;;12.10;92.20;;;;;;4934669;29;20412;-76
2022/10/01 00:45:11;;;;;;;10.93;7.40;;;12.10;92.30;;;;;;4921645;29;20032;-76
2022/10/01 00:47:41;;;;;;;9.57;7.45;;;12.10;92.40;;;;;;4926940;29;20040;-75
2022/10/01 00:50:16;;;;;;;9.02;7.63;;;12.10;92.40;;;;;;4921628;29;20369;-76
2022/10/01 00:52:47;;;;;;;9.63;7.00;;;12.10;92.40;;;;;;4921483;29;20027;-75
2022/10/01 00:55:18;;;;;;;9.82;6.63;;;12.20;92.40;;;;;;4926285;29;20137;-76
2022/10/01 00:57:44;;;;;;;9.80;7.35;;;12.20;92.40;;;;;;4925514;29;20032;-75
2022/10/01 01:00:12;;;;;;;9.00;6.68;;;12.20;92.50;;;;;;4915067;28;20184;-76
2022/10/01 01:02:38;;;;;;;8.77;6.60;;;12.20;92.50;;;;;;4919564;29;20448;-77
2022/10/01 01:05:04;;;;;;;9.48;7.00;;;12.30;92.60;;;;;;4916035;29;20123;-78
2022/10/01 01:07:31;;;;;;;9.68;6.72;;;12.20;92.60;;;;;;4907509;29;20506;-78
2022/10/01 01:09:59;;;;;;;7.95;6.07;;;12.30;92.70;;;;;;4926514;28;20028;-78
2022/10/01 01:12:52;;;;;;;9.32;6.40;;;12.30;92.70;;;;;;4926086;29;20460;-77
2022/10/01 01:15:23;;;;;;;11.20;6.72;;;12.30;92.70;;;;;;4920770;29;20036;-76
2022/10/01 01:17:56;;;;;;;8.00;5.60;;;12.30;92.70;;;;;;4923032;28;20044;-76
2022/10/01 01:20:46;;;;;;;7.38;5.80;;;12.40;92.70;;;;;;4911199;29;20514;-76
2022/10/01 01:23:17;;;;;;;9.70;6.00;;;12.30;92.80;;;;;;4921243;29;20384;-75
2022/10/01 01:26:21;;;;;;;7.43;5.45;;;12.30;93.00;;;;;;4921066;29;20055;-76
2022/10/01 01:28:51;;;;;;;8.00;5.35;;;12.30;93.10;;;;;;4918848;28;20041;-75
2022/10/01 01:31:25;;;;;;;7.20;5.03;;;12.30;93.10;;;;;;4925603;29;20036;-77
2022/10/01 01:33:54;;;;;;;7.30;4.60;;;12.30;93.20;;;;;;4913897;29;20044;-76
2022/10/01 01:36:29;;;;;;;9.82;4.75;;;12.30;93.30;;;;;;4923354;29;20110;-77
2022/10/01 01:38:59;;;;;;;7.35;4.65;;;12.40;93.40;;;;;;4916874;28;20055;-75
2022/10/01 01:41:31;;;;;;;6.28;4.25;;;12.40;93.60;;;;;;4913814;29;20068;-74
2022/10/01 01:44:01;;;;;;;7.32;4.03;;;12.40;93.60;;;;;;4927113;29;20032;-75
2022/10/01 01:46:32;;;;;;;6.95;4.32;;;12.40;93.60;;;;;;4928264;29;20043;-78
2022/10/01 01:49:01;;;;;;;8.13;4.40;;;12.50;93.60;;;;;;4919891;29;20035;-78
2022/10/01 01:51:44;;;;;;;6.07;4.10;;;12.40;93.60;;;;;;4921070;29;20028;-78
2022/10/01 01:54:10;;;;;;;6.53;4.50;;;12.50;93.60;;;;;;4922325;28;20039;-78
2022/10/01 01:56:36;;;;;;;8.02;4.50;;;12.50;93.60;;;;;;4909799;29;20042;-76
2022/10/01 01:59:02;;;;;;;7.53;3.95;;;12.60;93.60;;;;;;4918762;29;20036;-76
2022/10/01 02:01:39;;;;;;;6.55;3.90;;;12.50;93.60;;;;;;4924841;29;20890;-75
2022/10/01 02:04:24;;;;;;;6.43;3.80;;;12.60;93.60;;;;;;4913437;29;20036;-76
2022/10/01 02:06:50;;;;;;;5.75;4.00;;;12.60;93.60;;;;;;4917138;29;20044;-75
2022/10/01 02:09:48;;;;;;;6.70;3.70;;;12.60;93.70;;;;;;4924963;28;20047;-76
2022/10/01 02:12:16;;;;;;;5.55;3.65;;;12.70;93.70;;;;;;4915816;29;20051;-76
2022/10/01 02:14:59;;;;;;;5.68;3.97;;;12.70;93.70;;;;;;4904630;29;20143;-77
2022/10/01 02:17:51;;;;;;;6.20;4.07;;;12.70;93.70;;;;;;4899518;28;20133;-77
2022/10/01 02:20:28;;;;;;;6.35;4.50;;;12.70;93.70;;;;;;4900479;29;20040;-77
2022/10/01 02:22:59;;;;;;;9.90;4.40;;;12.70;93.80;;;;;;4907430;29;20040;-77
2022/10/01 02:25:31;;;;;;;6.50;3.88;;;12.80;93.90;;;;;;4898897;29;20048;-75
2022/10/01 02:28:03;;;;;;;9.18;4.13;;;12.80;93.90;;;;;;4906580;29;20028;-75
2022/10/01 02:30:31;;;;;;;6.22;4.25;;;12.80;94.00;;;;;;4912034;29;20357;-75
2022/10/01 02:32:58;;;;;;;6.65;4.20;;;12.90;94.00;;;;;;4896124;29;20485;-75
2022/10/01 02:35:26;;;;;;;7.30;4.50;;;12.80;94.00;;;;;;4894118;29;20029;-76
2022/10/01 02:37:55;;;;;;;7.65;4.88;;;12.90;94.00;;;;;;4906786;29;20032;-76
2022/10/01 02:40:25;;;;;;;7.65;4.50;;;12.90;94.00;;;;;;4916116;28;20114;-76
2022/10/01 02:42:55;;;;;;;8.02;4.68;;;12.90;94.10;;;;;;4915178;29;20083;-75
2022/10/01 02:45:23;;;;;;;6.90;4.38;;;13.00;94.10;;;;;;4911315;28;20601;-76
2022/10/01 02:47:56;;;;;;;7.53;5.45;;;13.00;94.10;;;;;;4910351;29;20476;-77
2022/10/01 02:50:26;;;;;;;8.10;4.47;;;13.00;94.10;;;;;;4909622;28;20460;-77
2022/10/01 02:52:58;;;;;;;6.68;4.32;;;13.10;94.20;;;;;;4903567;29;20493;-76
2022/10/01 02:55:28;;;;;;;7.30;4.40;;;13.10;94.10;;;;;;4908421;28;20094;-76
2022/10/01 02:57:57;;;;;;;6.78;3.97;;;13.10;94.20;;;;;;4907643;29;20056;-76
2022/10/01 03:00:24;;;;;;;7.50;3.92;;;13.20;94.20;;;;;;4905748;28;20044;-76
2022/10/01 03:02:49;;;;;;;5.95;4.10;;;13.20;94.20;;;;;;4904923;29;20123;-76
2022/10/01 03:05:16;;;;;;;8.02;4.03;;;13.20;94.20;;;;;;4905654;29;20443;-76
2022/10/01 03:07:42;;;;;;;5.82;4.05;;;13.20;94.10;;;;;;4913411;28;20034;-75
2022/10/01 03:10:10;;;;;;;6.20;3.53;;;13.30;94.20;;;;;;4914112;28;21091;-76
2022/10/01 03:12:36;;;;;;;6.50;3.13;;;13.30;94.10;;;;;;4926696;29;20092;-75
2022/10/01 03:15:02;;;;;;;6.13;3.60;;;13.30;94.10;;;;;;4928488;28;20046;-75
2022/10/01 03:17:28;;;;;;;6.68;3.47;;;13.30;94.10;;;;;;4901796;29;20407;-77
2022/10/01 03:19:54;;;;;;;5.90;3.15;;;13.40;94.10;;;;;;4914688;28;20130;-75
2022/10/01 03:22:24;;;;;;;8.32;3.63;;;13.30;94.10;;;;;;4922266;29;20118;-76
2022/10/01 03:24:51;;;;;;;5.38;3.67;;;13.30;94.10;;;;;;4926551;28;20024;-75
2022/10/01 03:27:17;;;;;;;6.57;3.30;;;13.40;94.20;;;;;;4922117;29;20288;-76
2022/10/01 03:29:43;;;;;;;5.28;3.22;;;13.40;94.20;;;;;;4928655;28;20502;-76
2022/10/01 03:32:09;;;;;;;7.05;3.33;;;13.40;94.20;;;;;;4928093;29;20063;-75
2022/10/01 03:34:35;;;;;;;5.10;3.30;;;13.40;94.20;;;;;;4927698;28;20042;-77
2022/10/01 03:37:01;;;;;;;5.75;3.25;;;13.40;94.20;;;;;;4918054;29;20047;-76
2022/10/01 03:39:26;;;;;;;5.20;3.10;;;13.40;94.20;;;;;;4918037;28;20043;-77
2022/10/01 03:41:52;;;;;;;5.53;3.30;;;13.50;94.20;;;;;;4935360;29;20037;-75
2022/10/01 03:44:18;;;;;;;5.20;2.92;;;13.40;94.30;;;;;;4923715;28;20364;-76
2022/10/01 03:46:43;;;;;;;5.45;3.17;;;13.50;94.30;;;;;;4923352;29;20028;-76
2022/10/01 03:49:09;;;;;;;5.90;3.42;;;13.50;94.30;;;;;;4915941;29;20407;-77
2022/10/01 03:51:36;;;;;;;5.18;3.45;;;13.50;94.40;;;;;;4920499;29;20486;-75
2022/10/01 03:54:02;;;;;;;4.43;2.97;;;13.50;94.30;;;;;;4926245;28;20051;-76
2022/10/01 03:56:28;;;;;;;4.93;2.95;;;13.40;94.30;;;;;;4924199;29;20114;-75
2022/10/01 03:58:53;;;;;;;5.80;3.22;;;13.50;94.40;;;;;;4915251;28;20064;-75
2022/10/01 04:01:19;;;;;;;5.45;3.30;;;13.50;94.40;;;;;;4924254;29;20090;-75
2022/10/01 04:03:46;;;;;;;5.75;3.35;;;13.40;94.40;;;;;;4909956;28;20409;-77
2022/10/01 04:06:12;;;;;;;6.38;3.78;;;13.50;94.50;;;;;;4914116;29;20032;-76
2022/10/01 04:08:37;;;;;;;6.40;3.70;;;13.40;94.50;;;;;;4908265;28;20380;-75
2022/10/01 04:11:04;;;;;;;7.65;4.15;;;13.50;94.50;;;;;;4924255;29;20456;-76
2022/10/01 04:13:30;;;;;;;5.38;3.35;;;13.50;94.60;;;;;;4920352;28;20395;-77
2022/10/01 04:15:56;;;;;;;7.15;4.05;;;13.50;94.60;;;;;;4923741;29;20042;-75
2022/10/01 04:18:22;;;;;;;6.50;3.70;;;13.50;94.60;;;;;;4918805;29;20032;-75
2022/10/01 04:20:48;;;;;;;8.27;4.70;;;13.50;94.60;;;;;;4921332;28;20205;-75
2022/10/01 04:23:13;;;;;;;6.78;4.18;;;13.50;94.60;;;;;;4919115;28;20328;-78
2022/10/01 04:25:39;;;;;;;6.80;4.10;;;13.50;94.60;;;;;;4917434;28;20055;-76
2022/10/01 04:28:09;;;;;;;6.25;3.90;;;13.50;94.60;;;;;;4919791;29;20035;-76
2022/10/01 04:30:37;;;;;;;7.63;3.78;;;13.40;94.60;;;;;;4925654;28;20035;-75
2022/10/01 04:33:05;;;;;;;7.05;4.43;;;13.40;94.60;;;;;;4900888;29;20365;-76
2022/10/01 04:35:31;;;;;;;7.90;4.32;;;13.40;94.60;;;;;;4924292;28;20026;-75
2022/10/01 04:38:04;;;;;;;7.88;3.85;;;13.40;94.60;;;;;;4942938;28;20062;-76
2022/10/01 04:40:33;;;;;;;8.57;4.20;;;13.40;94.70;;;;;;4927730;28;20043;-77
2022/10/01 04:42:59;;;;;;;6.28;4.00;;;13.40;94.70;;;;;;4931710;29;20119;-75
2022/10/01 04:45:24;;;;;;;9.45;4.57;;;13.40;94.70;;;;;;4925263;28;20035;-76
2022/10/01 04:47:52;;;;;;;6.60;3.90;;;13.40;94.70;;;;;;4923697;29;20055;-75
2022/10/01 04:50:19;;;;;;;6.57;3.95;;;13.40;94.70;;;;;;4918046;28;20046;-79
2022/10/01 04:52:46;;;;;;;7.20;4.05;;;13.40;94.80;;;;;;4926671;29;20102;-76
2022/10/01 04:55:14;;;;;;;12.15;5.43;;;13.40;94.90;;;;;;4919505;28;20028;-75
2022/10/01 04:57:40;;;;;;;8.55;4.50;;;13.50;94.90;;;;;;4919202;29;20032;-77
2022/10/01 05:00:08;;;;;;;8.15;4.50;;;13.50;95.00;;;;;;4920185;28;20051;-79
2022/10/01 05:02:34;;;;;;;7.28;4.40;;;13.50;95.00;;;;;;4924291;29;20027;-76
2022/10/01 05:05:02;;;;;;;9.25;4.15;;;13.50;95.00;;;;;;4921276;28;20094;-78
2022/10/01 05:07:29;;;;;;;11.85;4.88;;;13.50;95.00;;;;;;4925212;29;20142;-75
2022/10/01 05:09:55;;;;;;;11.10;4.57;;;13.60;95.10;;;;;;4924531;29;20087;-76
2022/10/01 05:12:21;;;;;;;8.20;4.18;;;13.60;95.10;;;;;;4928013;29;20052;-75
2022/10/01 05:14:47;;;;;;;9.07;4.82;;;13.60;95.10;;;;;;4920341;29;20047;-76
2022/10/01 05:17:17;;;;;;;7.47;4.45;;;13.60;95.10;;;;;;4927012;28;20047;-75
2022/10/01 05:19:43;;;;;;;12.38;5.00;;;13.70;95.10;;;;;;4926869;28;20048;-77
2022/10/01 05:22:08;;;;;;;13.82;5.82;;;13.70;95.20;;;;;;4923239;29;20040;-76
2022/10/01 05:24:34;;;;;;;8.75;4.55;;;13.70;95.20;;;;;;4914472;29;20038;-76
2022/10/01 05:27:00;;;;;;;10.00;4.28;;;13.70;95.20;;;;;;4918607;29;20085;-76
2022/10/01 05:29:25;;;;;;;12.35;4.72;;;13.70;95.20;;;;;;4918516;29;20138;-75
2022/10/01 05:31:51;;;;;;;13.05;5.70;;;13.70;95.20;;;;;;4923167;29;20051;-76
2022/10/01 05:34:17;;;;;;;14.30;5.72;;;13.80;95.30;;;;;;4921319;28;20111;-76
2022/10/01 05:36:42;;;;;;;12.25;5.95;;;13.80;95.40;;;;;;4924573;29;20023;-76
2022/10/01 05:39:08;;;;;;;16.30;6.80;;;13.90;95.40;;;;;;4923172;29;20032;-76
2022/10/01 05:41:34;;;;;;;17.27;6.75;;;13.90;95.40;;;;;;4925987;29;20035;-77
2022/10/01 05:44:01;;;;;;;15.15;6.38;;;14.00;95.50;;;;;;4916434;29;20046;-79
2022/10/01 05:46:27;;;;;;;12.32;6.10;;;14.00;95.50;;;;;;4929772;29;20036;-75
2022/10/01 05:48:53;;;;;;;15.23;6.93;;;14.10;95.50;;;;;;4923422;29;20036;-79
2022/10/01 05:51:18;;;;;;;14.43;7.00;;;14.00;95.40;;;;;;4910587;29;20043;-78
2022/10/01 05:53:47;;;;;;;15.15;7.82;;;14.00;95.40;;;;;;4929272;28;20479;-76
2022/10/01 05:56:13;;;;;;;20.35;9.57;;;14.00;95.30;;;;;;4929700;29;20032;-77
2022/10/01 05:58:39;;;;;;;20.33;10.63;;;14.00;95.40;;;;;;4927893;28;20126;-76
2022/10/01 06:01:05;;;;;;;22.63;10.80;;;14.10;95.40;;;;;;4929606;28;20051;-75
2022/10/01 06:03:31;;;;;;;20.67;10.25;;;14.10;95.40;;;;;;4933506;28;20038;-75
2022/10/01 06:05:56;;;;;;;23.02;9.40;;;14.10;95.40;;;;;;4926012;28;20031;-75
2022/10/01 06:08:22;;;;;;;25.23;9.00;;;14.10;95.40;;;;;;4926939;29;20472;-79
2022/10/01 06:10:48;;;;;;;19.35;8.68;;;14.10;95.30;;;;;;4928250;29;20054;-77
2022/10/01 06:13:16;;;;;;;21.80;8.02;;;14.10;95.30;;;;;;4910573;29;20074;-75
2022/10/01 06:15:43;;;;;;;25.38;7.68;;;14.10;95.30;;;;;;4907393;29;20024;-76
2022/10/01 06:18:11;;;;;;;19.52;7.07;;;14.10;95.30;;;;;;4907927;29;20099;-78
2022/10/01 06:20:38;;;;;;;18.17;6.50;;;14.00;95.30;;;;;;4906163;29;20040;-76
2022/10/01 06:23:07;;;;;;;22.70;6.68;;;14.10;95.30;;;;;;4907292;29;20087;-76
2022/10/01 06:25:35;;;;;;;19.60;6.10;;;14.00;95.30;;;;;;4908566;29;20060;-75
2022/10/01 06:28:01;;;;;;;16.38;5.38;;;14.10;95.20;;;;;;4904378;29;20071;-76
2022/10/01 06:30:30;;;;;;;15.68;5.28;;;14.20;95.10;;;;;;4891022;29;20029;-75
2022/10/01 06:33:04;;;;;;;22.70;5.65;;;14.20;95.00;;;;;;4909293;29;20091;-75
2022/10/01 06:35:30;;;;;;;20.70;5.47;;;14.20;94.80;;;;;;4901536;29;20076;-75
2022/10/01 06:37:56;;;;;;;22.65;5.60;;;14.10;94.70;;;;;;4904629;29;20040;-75
2022/10/01 06:40:23;;;;;;;21.90;5.25;;;14.20;94.70;;;;;;4906805;29;20478;-75
2022/10/01 06:42:49;;;;;;;16.40;5.38;;;14.20;94.70;;;;;;4891481;29;20504;-75
2022/10/01 06:45:16;;;;;;;15.73;4.80;;;14.20;94.60;;;;;;4894225;29;20238;-78
2022/10/01 06:47:51;;;;;;;18.10;5.13;;;14.30;94.60;;;;;;4909198;29;20032;-79
2022/10/01 06:50:17;;;;;;;14.95;4.97;;;14.30;94.50;;;;;;4906539;29;20094;-75
2022/10/01 06:52:49;;;;;;;23.23;5.35;;;14.40;94.40;;;;;;4908499;29;20460;-77
2022/10/01 06:55:19;;;;;;;20.60;5.53;;;14.40;94.30;;;;;;4906578;29;20032;-76
2022/10/01 06:57:46;;;;;;;23.63;6.53;;;14.40;94.20;;;;;;4908568;29;20300;-76
2022/10/01 07:00:13;;;;;;;19.77;5.45;;;14.40;94.10;;;;;;4903201;29;20024;-76
2022/10/01 07:02:39;;;;;;;23.30;6.10;;;14.40;94.10;;;;;;4911969;29;20040;-75
2022/10/01 07:05:07;;;;;;;19.42;5.45;;;14.60;94.10;;;;;;4903820;29;20044;-78
2022/10/01 07:07:36;;;;;;;17.30;5.28;;;14.60;94.00;;;;;;4902119;29;20365;-79
2022/10/01 07:10:04;;;;;;;25.40;6.40;;;14.70;93.80;;;;;;4907618;29;20068;-77
2022/10/01 07:12:30;;;;;;;19.98;5.60;;;14.70;93.70;;;;;;4909778;29;20131;-79
2022/10/01 07:14:55;;;;;;;20.95;6.57;;;14.70;93.40;;;;;;4925535;28;20467;-81
2022/10/01 07:17:21;;;;;;;16.85;5.15;;;14.60;93.30;;;;;;4925600;29;20035;-79
2022/10/01 07:19:47;;;;;;;19.65;5.07;;;14.60;93.20;;;;;;4922461;28;20039;-80
2022/10/01 07:22:13;;;;;;;24.15;5.43;;;14.70;93.30;;;;;;4918984;29;20277;-79
2022/10/01 07:24:39;;;;;;;22.85;6.00;;;14.70;93.20;;;;;;4924129;28;20020;-81
2022/10/01 07:27:05;;;;;;;22.58;5.63;;;14.80;93.10;;;;;;4924249;29;20051;-81
2022/10/01 07:29:31;;;;;;;19.95;5.65;;;14.80;93.10;;;;;;4920862;29;20062;-80
2022/10/01 07:31:58;;;;;;;21.92;5.85;;;14.80;92.80;;;;;;4924330;29;20571;-81
2022/10/01 07:34:25;;;;;;;20.73;5.22;;;14.90;92.70;;;;;;4933175;28;20031;-76
2022/10/01 07:36:50;;;;;;;21.25;5.65;;;15.00;92.50;;;;;;4952513;29;20047;-75
2022/10/01 07:39:16;;;;;;;22.63;5.93;;;15.10;92.30;;;;;;4944343;29;20025;-77
2022/10/01 07:41:42;;;;;;;20.35;5.28;;;15.30;92.00;;;;;;4929157;28;20027;-79
2022/10/01 07:44:10;;;;;;;24.13;5.57;;;15.40;91.50;;;;;;4926806;28;20048;-80
2022/10/01 07:46:37;;;;;;;20.17;5.18;;;15.50;91.20;;;;;;4926122;29;20035;-80
2022/10/01 07:49:03;;;;;;;19.83;5.35;;;15.60;90.90;;;;;;4912975;28;20024;-81
2022/10/01 07:51:28;;;;;;;20.90;6.65;;;15.60;90.20;;;;;;4922631;28;20345;-79
2022/10/01 07:53:54;;;;;;;17.88;5.10;;;15.60;89.60;;;;;;4923365;29;20040;-79
2022/10/01 07:56:20;;;;;;;19.10;5.63;;;15.60;89.60;;;;;;4910338;29;20161;-81
2022/10/01 07:58:46;;;;;;;24.52;5.30;;;15.60;89.30;;;;;;4925581;29;20028;-80
2022/10/01 08:01:11;;;;;;;22.80;5.95;;;15.60;89.20;;;;;;4923975;29;20484;-81
2022/10/01 08:03:37;;;;;;;26.58;6.55;;;15.50;89.20;;;;;;4917481;29;20032;-80
2022/10/01 08:06:04;;;;;;;23.77;6.72;;;15.70;89.40;;;;;;4919100;29;20035;-80
2022/10/01 08:08:30;;;;;;;29.60;7.53;;;15.80;88.90;;;;;;4905804;29;20047;-79
2022/10/01 08:10:56;;;;;;;25.15;7.07;;;16.00;88.70;;;;;;4927051;29;20504;-81
2022/10/01 08:13:23;;;;;;;21.90;6.05;;;16.10;87.40;;;;;;4919387;29;20472;-79
2022/10/01 08:15:52;;;;;;;19.95;5.57;;;16.20;86.80;;;;;;4930275;28;20102;-79
2022/10/01 08:18:19;;;;;;;19.30;5.93;;;16.10;86.70;;;;;;4927207;29;20043;-81
2022/10/01 08:20:44;;;;;;;18.67;5.82;;;16.10;86.10;;;;;;4922648;28;20043;-82
2022/10/01 08:23:13;;;;;;;19.92;4.90;;;16.10;86.30;;;;;;4927184;29;20030;-77
2022/10/01 08:25:40;;;;;;;19.90;5.50;;;16.20;85.60;;;;;;4922484;29;20560;-81
2022/10/01 08:28:07;;;;;;;19.48;4.60;;;16.20;85.60;;;;;;4916459;29;20044;-80
2022/10/01 08:30:36;;;;;;;24.30;5.05;;;16.40;85.10;;;;;;4922963;29;20074;-81
2022/10/01 08:33:02;;;;;;;19.45;4.55;;;16.50;84.70;;;;;;4927625;29;20464;-80
2022/10/01 08:35:29;;;;;;;22.83;4.97;;;16.60;84.10;;;;;;4918140;28;20107;-81
2022/10/01 08:37:59;;;;;;;19.90;4.72;;;16.50;84.00;;;;;;4925800;29;20040;-81
2022/10/01 08:40:25;;;;;;;22.05;5.53;;;16.60;84.50;;;;;;4935361;28;20043;-80
2022/10/01 08:43:00;;;;;;;16.30;3.95;;;16.60;84.00;;;;;;4926325;29;20435;-79
2022/10/01 08:45:33;;;;;;;22.73;4.65;;;16.60;83.60;;;;;;4925340;28;20027;-80
2022/10/01 08:48:11;;;;;;;17.75;4.95;;;16.80;83.00;;;;;;4918372;29;20443;-81
2022/10/01 08:50:40;;;;;;;24.45;4.32;;;16.80;83.10;;;;;;4904229;29;20514;-79
2022/10/01 08:53:14;;;;;;;21.38;4.55;;;16.80;82.90;;;;;;4928883;29;20024;-80
2022/10/01 08:55:40;;;;;;;16.50;4.50;;;16.80;82.30;;;;;;4955980;28;20071;-79
2022/10/01 08:58:11;;;;;;;17.23;4.72;;;17.10;81.20;;;;;;4917826;29;20024;-79
2022/10/01 09:00:40;;;;;;;18.58;4.78;;;17.30;80.70;;;;;;4907512;29;20411;-79
2022/10/01 09:03:11;;;;;;;21.30;4.93;;;17.30;81.40;;;;;;4921014;28;20483;-79
2022/10/01 09:05:51;;;;;;;18.35;4.57;;;17.40;79.80;;;;;;4923250;28;20043;-78
2022/10/01 09:08:42;;;;;;;21.33;4.95;;;17.60;80.20;;;;;;4924383;28;20039;-81
2022/10/01 09:11:44;;;;;;;20.55;5.20;;;17.50;79.40;;;;;;4925449;29;20107;-80
2022/10/01 09:14:42;;;;;;;22.65;5.63;;;17.60;80.10;;;;;;4881788;28;20036;-81
2022/10/01 09:17:43;;;;;;;16.23;4.65;;;17.20;78.60;;;;;;4879584;29;20036;-82
2022/10/01 09:20:28;;;;;;;25.15;6.43;;;17.10;79.80;;;;;;4896975;29;20036;-82
2022/10/01 09:22:56;;;;;;;23.45;6.30;;;17.30;79.90;;;;;;4908507;29;20047;-82
2022/10/01 09:25:26;;;;;;;21.23;5.72;;;17.40;78.50;;;;;;4895479;29;20039;-82
2022/10/01 09:28:05;;;;;;;14.85;5.55;;;17.70;78.50;;;;;;4899278;29;20025;-83
2022/10/01 09:30:32;;;;;;;20.70;6.20;;;17.90;77.70;;;;;;4907697;28;20081;-82
2022/10/01 09:33:14;;;;;;;16.05;4.90;;;17.90;77.40;;;;;;4901658;29;20032;-79
2022/10/01 09:35:45;;;;;;;15.70;5.53;;;18.10;77.30;;;;;;4902041;29;20461;-83
2022/10/01 09:38:16;;;;;;;19.40;5.95;;;18.10;76.40;;;;;;4907705;29;20040;-85
2022/10/01 09:40:53;;;;;;;18.85;4.70;;;18.00;75.80;;;;;;4904979;29;20107;-84
2022/10/01 09:43:30;;;;;;;17.05;4.80;;;17.70;76.80;;;;;;4906859;29;20036;-83
2022/10/01 09:45:56;;;;;;;17.38;4.13;;;17.60;76.30;;;;;;4910060;29;20123;-82
2022/10/01 09:48:29;;;;;;;18.70;4.95;;;17.60;76.30;;;;;;4905728;29;20145;-84
2022/10/01 09:51:08;;;;;;;17.10;4.70;;;17.30;76.70;;;;;;4911414;29;20377;-83
2022/10/01 09:53:40;;;;;;;16.88;5.53;;;17.40;77.40;;;;;;4920558;28;20028;-83
2022/10/01 09:56:28;;;;;;;17.45;5.55;;;17.40;76.90;;;;;;4906353;29;20039;-83
2022/10/01 09:58:59;;;;;;;19.00;5.72;;;17.70;78.20;;;;;;4898042;29;20115;-83
2022/10/01 10:01:49;;;;;;;19.13;3.92;;;18.20;75.60;;;;;;4903476;29;20298;-82
2022/10/01 10:04:20;;;;;;;20.35;4.43;;;18.50;74.50;;;;;;4905585;29;20063;-81
2022/10/01 10:06:46;;;;;;;17.95;4.78;;;18.80;74.50;;;;;;4901959;29;20119;-77
2022/10/01 10:09:18;;;;;;;19.35;4.45;;;19.20;72.90;;;;;;4925823;28;20032;-73
2022/10/01 10:11:44;;;;;;;23.08;4.40;;;19.10;72.30;;;;;;4917637;29;20079;-75
2022/10/01 10:14:34;;;;;;;16.55;3.70;;;19.10;70.90;;;;;;4926031;29;20455;-74
2022/10/01 10:17:12;;;;;;;18.35;4.45;;;18.70;70.00;;;;;;4927080;29;20036;-79
2022/10/01 10:19:38;;;;;;;14.77;3.90;;;18.40;71.70;;;;;;4922274;28;20071;-77
2022/10/01 10:22:22;;;;;;;14.82;3.22;;;18.70;71.10;;;;;;4927795;29;20035;-78
2022/10/01 10:24:48;;;;;;;14.63;3.40;;;18.70;69.20;;;;;;4922118;29;20044;-79
2022/10/01 10:27:28;;;;;;;17.38;3.78;;;19.10;66.80;;;;;;4929372;29;20040;-77
2022/10/01 10:30:16;;;;;;;16.00;2.95;;;19.10;65.10;;;;;;4929558;29;20095;-76
2022/10/01 10:32:43;;;;;;;14.13;2.90;;;19.30;66.10;;;;;;4932342;29;20019;-77
2022/10/01 10:35:21;;;;;;;16.17;3.60;;;19.10;66.20;;;;;;4932019;28;20032;-76
2022/10/01 10:37:52;;;;;;;14.18;3.53;;;19.60;65.40;;;;;;4927129;29;20039;-77
2022/10/01 10:40:22;;;;;;;13.75;4.18;;;19.60;66.10;;;;;;4932122;28;20024;-77
2022/10/01 10:42:53;;;;;;;14.52;4.40;;;19.70;66.50;;;;;;4933204;29;20036;-76
2022/10/01 10:45:28;;;;;;;16.20;3.55;;;19.60;66.10;;;;;;4922068;28;20315;-77
2022/10/01 10:47:54;;;;;;;21.33;4.45;;;19.80;64.30;;;;;;4929290;29;20040;-78
2022/10/01 10:50:32;;;;;;;14.75;3.63;;;19.70;66.40;;;;;;4925417;28;20047;-78
2022/10/01 10:52:58;;;;;;;14.70;3.13;;;19.10;66.70;;;;;;4927310;29;20063;-77
2022/10/01 10:55:24;;;;;;;16.05;4.20;;;18.60;68.20;;;;;;4919736;28;20451;-77
2022/10/01 10:57:49;;;;;;;13.77;3.20;;;18.50;69.30;;;;;;4929183;29;20035;-78
2022/10/01 11:00:22;;;;;;;13.05;3.03;;;18.20;68.70;;;;;;4922948;29;20040;-77
2022/10/01 11:03:01;;;;;;;22.02;4.43;;;18.10;69.60;;;;;;4925411;29;20031;-77
2022/10/01 11:05:30;;;;;;;21.58;4.30;;;18.10;70.70;;;;;;4921601;28;20126;-75
2022/10/01 11:08:03;;;;;;;16.48;4.30;;;18.10;71.80;;;;;;4930068;29;20027;-75
2022/10/01 11:10:44;;;;;;;18.05;4.40;;;18.10;72.10;;;;;;4927998;28;20039;-75
2022/10/01 11:13:26;;;;;;;20.10;6.38;;;18.10;71.40;;;;;;4931228;29;20056;-74
2022/10/01 11:16:17;;;;;;;20.05;4.25;;;18.20;71.00;;;;;;4927223;29;20124;-74
2022/10/01 11:18:50;;;;;;;22.23;4.90;;;18.10;71.10;;;;;;4927036;28;20032;-75
2022/10/01 11:21:34;;;;;;;15.82;3.95;;;17.90;70.10;;;;;;4921405;29;20065;-75
2022/10/01 11:24:18;;;;;;;18.77;4.80;;;17.70;69.90;;;;;;4925284;29;20301;-75
2022/10/01 11:27:18;;;;;;;19.13;4.13;;;17.80;71.20;;;;;;4927230;29;20028;-77
2022/10/01 11:30:03;;;;;;;20.70;4.20;;;17.80;70.00;;;;;;4924170;29;20347;-75
2022/10/01 11:32:35;;;;;;;11.23;2.88;;;17.60;67.70;;;;;;4927455;29;20075;-76
2022/10/01 11:35:27;;;;;;;11.90;3.65;;;17.50;68.10;;;;;;4922953;29;20031;-77
2022/10/01 11:38:27;;;;;;;17.60;3.90;;;17.60;68.10;;;;;;4908665;29;20039;-75
2022/10/01 11:41:17;;;;;;;15.25;3.47;;;17.90;67.00;;;;;;4906236;29;20130;-76
2022/10/01 11:44:07;;;;;;;12.98;3.28;;;18.20;67.40;;;;;;4907914;29;21328;-76
2022/10/01 11:46:52;;;;;;;15.27;3.60;;;18.30;67.50;;;;;;4900548;29;20148;-76
2022/10/01 11:49:51;;;;;;;15.00;3.90;;;18.80;67.00;;;;;;4922323;28;20063;-77
2022/10/01 11:52:46;;;;;;;15.98;3.75;;;19.30;66.30;;;;;;4924753;29;20032;-74
2022/10/01 12:01:34;;;;;;;18.48;4.65;;;20.00;63.60;;;;;;4920278;29;20046;-82
2022/10/01 12:04:23;;;;;;;14.48;3.92;;;20.30;64.40;;;;;;4922252;28;20051;-77
2022/10/01 12:06:58;;;;;;;16.75;4.05;;;20.10;63.40;;;;;;4919594;29;20135;-78
2022/10/01 12:09:36;;;;;;;13.35;3.30;;;19.90;63.10;;;;;;4920646;29;20626;-78
2022/10/01 12:12:07;;;;;;;17.85;3.53;;;19.90;62.60;;;;;;4919540;28;20048;-77
2022/10/01 12:14:56;;;;;;;15.77;2.97;;;20.10;63.70;;;;;;4920346;28;20127;-77
2022/10/01 12:17:45;;;;;;;13.15;2.92;;;20.30;62.60;;;;;;4914392;29;20043;-76
2022/10/01 12:20:35;;;;;;;12.55;2.50;;;20.00;61.30;;;;;;4929838;28;20028;-76
2022/10/01 12:23:04;;;;;;;13.25;2.85;;;19.80;61.90;;;;;;4909425;29;20040;-76
2022/10/01 12:25:58;;;;;;;13.40;3.28;;;19.40;62.50;;;;;;4899669;28;20676;-79
2022/10/01 12:28:39;;;;;;;14.60;3.05;;;19.30;63.80;;;;;;4896373;29;20047;-76
2022/10/01 12:31:21;;;;;;;12.63;2.90;;;19.30;63.20;;;;;;4904048;28;20032;-77
2022/10/01 12:34:16;;;;;;;12.52;2.40;;;19.40;64.20;;;;;;4918331;28;20741;-78
2022/10/01 12:36:54;;;;;;;11.93;2.67;;;19.20;64.00;;;;;;4904430;29;20060;-78
2022/10/01 12:39:33;;;;;;;14.70;3.17;;;19.60;62.10;;;;;;4902330;28;20110;-78
2022/10/01 12:42:24;;;;;;;15.30;3.20;;;19.70;63.40;;;;;;4906415;29;20040;-77
2022/10/01 12:45:04;;;;;;;15.30;3.35;;;20.30;63.40;;;;;;4891265;29;20047;-77
2022/10/01 12:47:57;;;;;;;15.75;3.33;;;20.60;62.70;;;;;;4903184;29;20115;-77
2022/10/01 12:50:42;;;;;;;11.57;2.55;;;20.70;62.60;;;;;;4912588;29;20051;-77
2022/10/01 12:53:24;;;;;;;12.25;2.40;;;20.70;61.70;;;;;;4898056;29;20383;-78
2022/10/01 12:56:03;;;;;;;13.07;2.75;;;20.80;61.90;;;;;;4906085;29;20906;-77
2022/10/01 12:59:13;;;;;;;10.27;2.40;;;20.40;59.10;;;;;;4894665;28;20487;-77
2022/10/01 13:02:06;;;;;;;12.07;2.83;;;19.80;58.80;;;;;;4898950;29;20404;-77
2022/10/01 13:04:55;;;;;;;13.65;2.50;;;19.40;60.90;;;;;;4903750;29;20115;-77
2022/10/01 13:07:45;;;;;;;15.13;2.15;;;19.50;60.20;;;;;;4903643;29;20032;-77
2022/10/01 13:10:17;;;;;;;14.13;2.53;;;19.20;60.40;;;;;;4932862;28;20044;-80